TFM - Tactical Decision Aid
ID: Runway Winds: CIG/VIS Threshold:

KCNM - Carlsbad/Cavern City, NM, US

Updated at: 1355 UTC 26 Feb 2021
Latest TAF at: 1120 UTC 26 Feb 2021

TAF Board

Time1253Z 26/14Z 26/15Z 26/16Z 26/17Z 26/18Z 26/19Z 26/20Z 26/21Z 26/22Z 26/23Z 27/00Z 27/01Z 27/02Z>>
Type OBS PRVL PRVL PRVL PRVL PRVL PRVL PRVL PRVL PRVL PRVL PRVL PRVL PRVL
VIS -- >6 >6 >6 >6 >6 >6 >6 >6 >6 >6 >6 >6 >6
CIG -- -- -- -- -- -- -- -- -- -- -- -- -- --
Cover CLR SCT SCT SCT SCT SCT SCT SCT SCT SCT SCT SCT SCT SCT
FltCat VFR VFR VFR VFR VFR VFR VFR VFR VFR VFR VFR VFR VFR VFR
WX -- -- -- -- -- -- -- -- -- -- -- -- -- --
WDir 160 230 230 230 230 230 230 230 230 230 230 230 230 230
WSpd 6 10 10 10 10 10 10 10 10 10 10 10 10 10
WGst -- -- -- -- -- -- -- -- -- -- -- -- -- --

TDA Impact Legend

  None Marginal Slight Moderate High
Visibility (sm) >5 3≤X≤5 2≤X<3 0.5≤X<2 <0.5
Ceiling (100 ft) >30 10≤X≤30 6≤X<10 2≤X<6 <2
Wind Speed (kt) <15 15≤X<25 25≤X<30 ≥30
Wind Gust (kt) <15 15≤X<25 25≤X<35 ≥35
Weather No Wx Reported VCTS -TS,-FZRA TS,FZRA +TS,+FZRA
TAF
KCNM 261120Z 2612/2712 23010KT P6SM SCT250

METAR
KCNM 261253Z AUTO 16006KT CLR M02/M06 A2993 RMK AO2 SLP128 T10171056
KCNM 261153Z AUTO 00000KT CLR M03/M07 A2996 RMK AO2 SLP134 T10331067 10022 21039 56020
KCNM 261053Z AUTO 18005KT CLR M02/M06 A2997 RMK AO2 SLP139 T10221061

Radar Display
Forecast Discussion